LIRQLIBD

Guest
Details From LIRQ - Firenze
To LIBD - Bari Palese Macchie
Flight Number -
Tags generated
Created
Modified
Stats Distance 294 nm / 545 km
Max Altitude 35,000 ft / 10,668 m
Waypoints 5
Social Downloads 6
Likes 0
Share VATSIM

Download

Looking for another format? Having issues loading an existing format? Contact us
Advertisement - Login to hide

Notes

Basic altitude profile: - Ascent Rate: 2500ft/min - Ascent Speed: 250kts - Cruise Altitude: 35000ft - Cruise Speed: 420kts - Descent Rate: 1500ft/min - Descent Speed: 250kts Options: - Use NATs: yes - Use PACOTS: yes - Use low airways: yes - Use high airways: yes

Route

LIRQ PREKI UL168 PES M872 AME LIBD

ID Type Via Altitude Latitude Longitude Leg Dist Tot Dist Heading (true) Name
O LIRQ APT - 0 ft / 0 m 43.80998˚ 11.20512˚ - 0 nm - Firenze
PREKI FIX - 35,000 ft / 10,668 m 42.87750˚ 13.11917˚ 100 nm 100 nm 123° / 124° -
PES VOR UL168 (AWY-HI) 29,900 ft / 9,114 m 42.43611˚ 14.18444˚ 54 nm 154 nm 119° / 120° PESCARA VOR-DME
AME NDB M872 (AWY-LO) 9,500 ft / 2,896 m 41.50000˚ 15.83778˚ 92 nm 247 nm 127° / 128° AMENDOLA NDB
O LIBD APT - 0 ft / 0 m 41.13787˚ 16.75832˚ 46 nm 294 nm 117° / 118° Bari Palese Macchie

Altitude Profile

Advertisement - Login to hide

Weather


0- 5 10 15 20 25 30 35+ Temperature / ° C

Clouds and Precipitation
Forecast for 2017-12-15 06:00 UTC. Updated an hour ago

Ground ~20,000 ft ~40,000 ft Winds

LIRQ

Details ICAO LIRQ (FLR)
Name Firenze
Region Italy
Timezone Europe/Rome (UTC+1.0)
Stats Elevation 142 ft / 43 m (AMSL)
Location 43.809984° 11.205118°
Runways 1
Magnetic Variation 2.875° E

METAR

LIRQ 150220Z 03003KT CAVOK 12/06 Q1005

Decode

TAF

TAF LIRQ 142300Z 1500/1524 22012KT 9999 SCT025 BKN050 TEMPO 1500/1509 4000 RA TEMPO 1509/1518 SHRA

Decode

Departure Runways

ID Width Length Bearing (true) Bearing (mag) Surface Threshold Offset Overrun Length
05 98 ft / 30 m 5,420 ft / 1,652 m 48.52° 45.65° Asphalt 492 ft / 150 m 0 ft / 0 m
23 98 ft / 30 m 5,420 ft / 1,652 m 228.53° 225.66° Asphalt 2,287 ft / 697 m 0 ft / 0 m

LIBD

Details ICAO LIBD (BRI)
Name Bari Palese Macchie
Region Italy
Timezone Europe/Rome (UTC+1.0)
Stats Elevation 177 ft / 54 m (AMSL)
Location 41.137865° 16.758318°
Runways 1
Magnetic Variation 3.737° E

METAR

LIBD 150220Z 19005KT 160V230 CAVOK 12/09 Q1010

Decode

TAF

TAF LIBD 142300Z 1500/1524 23014KT 9999 SCT030 TEMPO 1504/1512 RA= TAF LIBP 142300Z 1500/1524 22018KT 9999 SCT020 TEMPO 1500/1506 22020G30KT TEMPO 1514/1518 RA

Decode

Destination Runways

ID Width Length Bearing (true) Bearing (mag) Surface Threshold Offset Overrun Length
07 148 ft / 45 m 9,262 ft / 2,823 m 69.39° 65.65° Asphalt 1,257 ft / 383 m 0 ft / 0 m
25 148 ft / 45 m 9,262 ft / 2,823 m 249.42° 245.68° Asphalt 0 ft / 0 m 194 ft / 59 m

Approach Navaids

Runway Type Ident Frequency Range Bearing (true) Bearing (mag) Slope Elevation
07 Localiser BAP 111.35 MHz 18 nm / 33 km 69.25° 65.51° - 177 ft / 54 m (AMSL)
07 Glidescope BAP 111.35 MHz 10 nm / 19 km 69.25° 65.51° 3.32° 177 ft / 54 m (AMSL)
07 DME BAP 111.35 MHz 18 nm / 33 km - - - 183 ft / 56 m (AMSL)

Popular Alternatives